Champlain, New York
Current Conditions -  °F | °C
As of 3:55 AM on Wednesday 28 Jan 2015 (Local Time) from KFSO Reporting Station
Broken Clouds Broken Clouds  
Wind Chill: -3°   Ceiling: 7000
Heat Index:   Visibility: 10mi
Dew Point:   Wind: 5mph
Humidity: 75%   Direction: 350°N
Pressure: 30.02"   Gusts: NA
Location:  44.99°N, 73.45°W
Report Text: KFSO 280855Z AUTO 35004KT 10SM BKN070 BKN085 M14/M18 A3002 RMK AO2 T11431178
Loading
Personal Weather Stations






























Interactive Weather Map New forecast layout! Learn more

10-Day Weather Forecast

Advertisements
Track Severe Weather on mobile